Terminal Aerodrome Forecast
Issued by NWS

Home | Current Version | Previous Version | Text Only | Print | Product List | Glossary Off
Versions: 1 2 3 4 5 6 7 8 9 10 11 12 13 14 15 16 17 18 19 20 21 22

000
FTUS43 KBIS 260700 AAA
TAFJMS
TAF AMD
KJMS 260735Z 2608/2706 36009KT P6SM OVC015
     FM261000 34011KT P6SM BKN015 OVC022
     FM262000 32010KT P6SM BKN035
     FM262200 33007KT P6SM SCT025 SCT300=

USA.gov is the U.S. government's official web portal to all federal, state and local government web resources and services.